Time;durP1;ratioP1;P1;durP2;ratioP2;P2;SDS_P1;SDS_P2;PMS_P1;PMS_P2;Temp;Humidity;BMP_temperature;BMP_pressure;BME280_temperature;BME280_humidity;BME280_pressure;Samples;Min_cycle;Max_cycle;Signal;HPM_P1;HPM_P2
2022/12/11 00:00:39;;;;;;;;;;;1.20;99.90;;;;;;4953959;29;19922;-77
2022/12/11 00:03:04;;;;;;;;;;;1.20;99.90;;;;;;4954525;28;19977;-75
2022/12/11 00:05:30;;;;;;;;;;;1.10;99.90;;;;;;4954524;28;19923;-78
2022/12/11 00:07:56;;;;;;;;;;;1.20;99.90;;;;;;4953212;29;19930;-76
2022/12/11 00:10:22;;;;;;;;;;;1.20;99.90;;;;;;4954250;29;19976;-75
2022/12/11 00:12:47;;;;;;;;;;;1.10;99.90;;;;;;4954132;29;20005;-81
2022/12/11 00:15:13;;;;;;;;;;;1.20;99.90;;;;;;4952673;29;20457;-80
2022/12/11 00:17:38;;;;;;;;;;;2.30;99.90;;;;;;4953697;29;19922;-76
2022/12/11 00:20:04;;;;;;;;;;;2.00;99.90;;;;;;4954083;29;20069;-77
2022/12/11 00:22:30;;;;;;;;;;;1.20;99.90;;;;;;4953082;29;19922;-80
2022/12/11 00:24:55;;;;;;;;;;;1.30;99.90;;;;;;4954105;29;19929;-80
2022/12/11 00:27:21;;;;;;;;;;;1.10;99.90;;;;;;4953005;29;19987;-79
2022/12/11 00:29:47;;;;;;;;;;;1.10;99.90;;;;;;4956232;28;19969;-81
2022/12/11 00:32:12;;;;;;;;;;;1.10;99.90;;;;;;4957629;29;20325;-80
2022/12/11 00:34:38;;;;;;;;;;;1.10;99.90;;;;;;4957163;28;19922;-81
2022/12/11 00:37:04;;;;;;;;;;;1.10;99.90;;;;;;4956308;29;19922;-78
2022/12/11 00:39:29;;;;;;;;;;;3.10;99.90;;;;;;4957514;29;19922;-77
2022/12/11 00:41:55;;;;;;;;;;;1.10;99.90;;;;;;4955324;29;19919;-79
2022/12/11 00:44:20;;;;;;;;;;;1.20;99.90;;;;;;4952988;29;19930;-79
2022/12/11 00:46:46;;;;;;;;;;;3.10;99.90;;;;;;4957249;28;19922;-79
2022/12/11 00:49:11;;;;;;;;;;;1.10;99.90;;;;;;4957057;29;20353;-79
2022/12/11 00:51:37;;;;;;;;;;;1.10;99.90;;;;;;4954994;29;20361;-79
2022/12/11 00:54:03;;;;;;;;;;;1.30;99.90;;;;;;4957471;28;19925;-79
2022/12/11 00:56:28;;;;;;;;;;;1.30;99.90;;;;;;4955402;29;19969;-79
2022/12/11 00:58:54;;;;;;;;;;;1.30;99.90;;;;;;4955028;29;19922;-79
2022/12/11 01:01:27;;;;;;;;;;;1.30;99.90;;;;;;4955744;29;20361;-79
2022/12/11 01:03:53;;;;;;;;;;;1.30;99.90;;;;;;4956426;28;20031;-79
2022/12/11 01:06:20;;;;;;;;;;;2.40;99.90;;;;;;4956429;28;20030;-79
2022/12/11 01:08:46;;;;;;;;;;;3.10;99.90;;;;;;4955881;29;20305;-79
2022/12/11 01:11:13;;;;;;;;;;;1.20;99.90;;;;;;4955082;28;19929;-79
2022/12/11 01:13:38;;;;;;;;;;;1.20;99.90;;;;;;4956800;28;20378;-79
2022/12/11 01:16:12;;;;;;;;;;;1.10;99.90;;;;;;4956508;28;19922;-80
2022/12/11 01:18:38;;;;;;;;;;;1.20;99.90;;;;;;4936550;29;19930;-79
2022/12/11 01:21:08;;;;;;;;;;;1.20;99.90;;;;;;4937880;29;19918;-79
2022/12/11 01:23:34;;;;;;;;;;;1.20;99.90;;;;;;4937115;29;20378;-80
2022/12/11 01:26:06;;;;;;;;;;;3.20;99.90;;;;;;4941303;29;19919;-80
2022/12/11 01:28:32;;;;;;;;;;;1.20;99.90;;;;;;4956156;28;20326;-80
2022/12/11 01:30:58;;;;;;;;;;;1.20;99.90;;;;;;4956516;28;19918;-80
2022/12/11 01:33:23;;;;;;;;;;;1.40;99.90;;;;;;4955298;29;19930;-80
2022/12/11 01:35:49;;;;;;;;;;;1.30;99.90;;;;;;4956998;29;20263;-79
2022/12/11 01:38:14;;;;;;;;;;;2.90;99.90;;;;;;4956110;29;19927;-79
2022/12/11 01:40:45;;;;;;;;;;;1.70;99.90;;;;;;4954808;28;19929;-79
2022/12/11 01:43:10;;;;;;;;;;;3.30;99.90;;;;;;4955428;29;19978;-79
2022/12/11 01:45:40;;;;;;;;;;;3.00;99.90;;;;;;4954868;28;20338;-80
2022/12/11 01:48:09;;;;;;;;;;;1.40;99.90;;;;;;4954532;29;19933;-80
2022/12/11 01:50:37;;;;;;;;;;;1.40;99.90;;;;;;4955666;29;19923;-80
2022/12/11 01:53:04;;;;;;;;;;;1.30;99.90;;;;;;4955083;29;19977;-80
2022/12/11 01:55:34;;;;;;;;;;;2.00;99.90;;;;;;4954085;29;20385;-80
2022/12/11 01:58:02;;;;;;;;;;;1.50;99.90;;;;;;4956245;29;20374;-80
2022/12/11 02:00:28;;;;;;;;;;;3.30;99.90;;;;;;4954324;28;19950;-81
2022/12/11 02:02:54;;;;;;;;;;;2.50;99.90;;;;;;4956895;29;19926;-81
2022/12/11 02:05:19;;;;;;;;;;;2.50;99.90;;;;;;4954360;28;19923;-80
2022/12/11 02:07:46;;;;;;;;;;;1.60;99.90;;;;;;4955525;29;19944;-80
2022/12/11 02:10:12;;;;;;;;;;;3.40;99.90;;;;;;4956310;29;19993;-80
2022/12/11 02:12:52;;;;;;;;;;;1.60;99.90;;;;;;4955806;28;20369;-80
2022/12/11 02:15:45;;;;;;;;;;;1.50;99.90;;;;;;4953728;29;19931;-80
2022/12/11 02:18:14;;;;;;;;;;;1.60;99.90;;;;;;4954779;29;20012;-80
2022/12/11 02:20:48;;;;;;;;;;;1.40;99.90;;;;;;4954287;29;20176;-80
2022/12/11 02:23:16;;;;;;;;;;;1.50;99.90;;;;;;4955133;28;19922;-80
2022/12/11 02:26:00;;;;;;;;;;;1.50;99.90;;;;;;4955536;29;19930;-80
2022/12/11 02:28:34;;;;;;;;;;;1.50;99.90;;;;;;4954578;28;20370;-81
2022/12/11 02:31:02;;;;;;;;;;;1.50;99.90;;;;;;4953909;29;20004;-81
2022/12/11 02:33:52;;;;;;;;;;;1.40;99.90;;;;;;4954455;29;20381;-81
2022/12/11 02:36:20;;;;;;;;;;;1.40;99.90;;;;;;4945446;29;20413;-80
2022/12/11 02:38:49;;;;;;;;;;;1.40;99.90;;;;;;4955817;28;19928;-80
2022/12/11 02:41:16;;;;;;;;;;;1.30;99.90;;;;;;4955171;28;19977;-80
2022/12/11 02:43:42;;;;;;;;;;;2.70;99.90;;;;;;4954467;28;19968;-80
2022/12/11 02:46:08;;;;;;;;;;;1.40;99.90;;;;;;4954072;29;19961;-80
2022/12/11 02:48:34;;;;;;;;;;;1.50;99.90;;;;;;4955238;28;19965;-81
2022/12/11 02:51:01;;;;;;;;;;;1.50;99.90;;;;;;4953566;28;19922;-81
2022/12/11 02:53:28;;;;;;;;;;;1.40;99.90;;;;;;4954396;28;19938;-81
2022/12/11 02:56:00;;;;;;;;;;;1.40;99.90;;;;;;4954078;29;19969;-80
2022/12/11 02:58:30;;;;;;;;;;;1.60;99.90;;;;;;4954352;28;19968;-80
2022/12/11 03:00:55;;;;;;;;;;;3.50;99.90;;;;;;4954885;28;19929;-80
2022/12/11 03:03:21;;;;;;;;;;;1.50;99.90;;;;;;4954091;29;19922;-81
2022/12/11 03:05:47;;;;;;;;;;;3.00;99.90;;;;;;4954965;28;19973;-81
2022/12/11 03:08:16;;;;;;;;;;;2.40;99.90;;;;;;4954970;29;19965;-80
2022/12/11 03:10:41;;;;;;;;;;;1.60;99.90;;;;;;4954723;28;20400;-81
2022/12/11 03:13:07;;;;;;;;;;;1.60;99.90;;;;;;4954818;28;19923;-80
2022/12/11 03:15:40;;;;;;;;;;;1.60;99.90;;;;;;4955160;29;20717;-81
2022/12/11 03:18:14;;;;;;;;;;;1.50;99.90;;;;;;4954667;28;20374;-80
2022/12/11 03:20:41;;;;;;;;;;;1.50;99.90;;;;;;4953978;29;20017;-79
2022/12/11 03:23:14;;;;;;;;;;;3.20;99.90;;;;;;4954607;29;19927;-80
2022/12/11 03:25:48;;;;;;;;;;;1.70;99.90;;;;;;4954039;28;19926;-80
2022/12/11 03:28:19;;;;;;;;;;;1.70;99.90;;;;;;4954806;28;20016;-80
2022/12/11 03:30:48;;;;;;;;;;;1.60;99.90;;;;;;4954860;29;19922;-80
2022/12/11 03:33:22;;;;;;;;;;;1.60;99.90;;;;;;4953860;29;19922;-80
2022/12/11 03:35:50;;;;;;;;;;;1.60;99.90;;;;;;4954848;28;20282;-80
2022/12/11 03:38:18;;;;;;;;;;;1.60;99.90;;;;;;4954809;28;19927;-81
2022/12/11 03:40:45;;;;;;;;;;;1.60;99.90;;;;;;4952721;29;19929;-80
2022/12/11 03:43:11;;;;;;;;;;;1.60;99.90;;;;;;4954727;28;19946;-81
2022/12/11 03:45:37;;;;;;;;;;;1.60;99.90;;;;;;4954203;28;20362;-81
2022/12/11 03:48:04;;;;;;;;;;;1.50;99.90;;;;;;4955401;28;19923;-80
2022/12/11 03:50:30;;;;;;;;;;;1.50;99.90;;;;;;4952989;29;19922;-81
2022/12/11 03:52:57;;;;;;;;;;;1.50;99.90;;;;;;4952877;28;19929;-81
2022/12/11 03:55:23;;;;;;;;;;;1.50;99.90;;;;;;4954572;28;19925;-81
2022/12/11 03:57:49;;;;;;;;;;;1.50;99.90;;;;;;4954592;28;20456;-81
2022/12/11 04:00:16;;;;;;;;;;;1.50;99.90;;;;;;4954316;29;19926;-81
2022/12/11 04:02:42;;;;;;;;;;;1.60;99.90;;;;;;4954715;28;19933;-81
2022/12/11 04:05:08;;;;;;;;;;;1.50;99.90;;;;;;4957173;29;19929;-81
2022/12/11 04:07:34;;;;;;;;;;;1.50;99.90;;;;;;4956173;28;19926;-81
2022/12/11 04:09:59;;;;;;;;;;;1.50;99.90;;;;;;4957271;29;20370;-81
2022/12/11 04:12:25;;;;;;;;;;;1.50;99.90;;;;;;4956695;29;19926;-81
2022/12/11 04:15:02;;;;;;;;;;;1.60;99.90;;;;;;4956312;29;19929;-81
2022/12/11 04:26:03;;;;;;;;;;;1.50;99.90;;;;;;4957438;29;19929;-82
2022/12/11 04:28:28;;;;;;;;;;;2.70;99.90;;;;;;4955909;29;19926;-81
2022/12/11 04:30:54;;;;;;;;;;;1.50;99.90;;;;;;4956791;29;19922;-81
2022/12/11 04:33:22;;;;;;;;;;;1.50;99.90;;;;;;4955922;29;19923;-81
2022/12/11 04:35:47;;;;;;;;;;;1.50;99.90;;;;;;4957292;28;19966;-81
2022/12/11 04:38:13;;;;;;;;;;;1.60;99.90;;;;;;4957513;29;19922;-82
2022/12/11 04:40:39;;;;;;;;;;;0.10;99.90;;;;;;4957538;28;19941;-82
2022/12/11 04:43:04;;;;;;;;;;;3.30;99.90;;;;;;4956678;28;19977;-82
2022/12/11 04:45:30;;;;;;;;;;;1.90;99.90;;;;;;4957289;29;19965;-82
2022/12/11 04:47:55;;;;;;;;;;;1.50;99.90;;;;;;4957934;29;19922;-82
2022/12/11 04:50:21;;;;;;;;;;;1.40;99.90;;;;;;4956598;29;20369;-83
2022/12/11 04:52:46;;;;;;;;;;;1.50;99.90;;;;;;4956942;28;19949;-82
2022/12/11 04:55:12;;;;;;;;;;;2.20;99.90;;;;;;4957717;29;20448;-83
2022/12/11 04:57:38;;;;;;;;;;;1.50;99.90;;;;;;4954942;29;19926;-83
2022/12/11 05:00:05;;;;;;;;;;;1.40;99.90;;;;;;4956381;29;20266;-82
2022/12/11 05:02:33;;;;;;;;;;;1.30;99.90;;;;;;4956802;28;19922;-82
2022/12/11 05:04:58;;;;;;;;;;;1.30;99.90;;;;;;4955021;29;20374;-82
2022/12/11 05:07:24;;;;;;;;;;;2.20;99.90;;;;;;4956638;29;19929;-82
2022/12/11 05:09:49;;;;;;;;;;;2.90;99.90;;;;;;4957296;29;19930;-82
2022/12/11 05:12:15;;;;;;;;;;;1.30;99.90;;;;;;4956071;29;19926;-81
2022/12/11 05:14:40;;;;;;;;;;;1.30;99.90;;;;;;4956810;28;19923;-82
2022/12/11 05:17:06;;;;;;;;;;;3.40;99.90;;;;;;4954609;29;20016;-82
2022/12/11 05:19:34;;;;;;;;;;;1.40;99.90;;;;;;4955903;29;19960;-81
2022/12/11 05:22:00;;;;;;;;;;;1.30;99.90;;;;;;4955876;29;19923;-82
2022/12/11 05:24:25;;;;;;;;;;;2.30;99.90;;;;;;4955792;29;19929;-81
2022/12/11 05:26:51;;;;;;;;;;;1.50;99.90;;;;;;4955465;29;19922;-81
2022/12/11 05:29:19;;;;;;;;;;;1.40;99.90;;;;;;4956604;29;19922;-81
2022/12/11 05:31:45;;;;;;;;;;;1.30;99.90;;;;;;4956279;29;19944;-82
2022/12/11 05:34:10;;;;;;;;;;;1.30;99.90;;;;;;4956321;29;20397;-81
2022/12/11 05:36:36;;;;;;;;;;;2.90;99.90;;;;;;4956944;29;19977;-82
2022/12/11 05:39:02;;;;;;;;;;;1.30;99.90;;;;;;4954601;28;20301;-82
2022/12/11 05:41:29;;;;;;;;;;;1.50;99.90;;;;;;4956504;28;20293;-81
2022/12/11 05:43:55;;;;;;;;;;;3.00;99.90;;;;;;4956742;28;19922;-81
2022/12/11 05:46:22;;;;;;;;;;;1.40;99.90;;;;;;4954233;29;19930;-81
2022/12/11 05:48:54;;;;;;;;;;;3.00;99.90;;;;;;4955768;29;20263;-81
2022/12/11 05:51:22;;;;;;;;;;;1.80;99.90;;;;;;4937101;29;20294;-82
2022/12/11 05:53:49;;;;;;;;;;;2.70;99.90;;;;;;4935701;29;19947;-82
2022/12/11 05:56:18;;;;;;;;;;;1.30;99.90;;;;;;4953164;29;19993;-82
2022/12/11 05:58:45;;;;;;;;;;;1.40;99.90;;;;;;4956322;29;20396;-82
2022/12/11 06:01:12;;;;;;;;;;;3.00;99.90;;;;;;4954300;29;20009;-81
2022/12/11 06:03:38;;;;;;;;;;;1.40;99.90;;;;;;4955572;28;19922;-81
2022/12/11 06:06:04;;;;;;;;;;;1.40;99.90;;;;;;4956171;29;19922;-83
2022/12/11 06:08:30;;;;;;;;;;;1.40;99.90;;;;;;4953531;29;20374;-81
2022/12/11 06:10:56;;;;;;;;;;;1.40;99.90;;;;;;4955763;28;19930;-81
2022/12/11 06:13:24;;;;;;;;;;;1.40;99.90;;;;;;4955156;29;19922;-81
2022/12/11 06:15:50;;;;;;;;;;;1.40;99.90;;;;;;4955032;29;19930;-81
2022/12/11 06:18:15;;;;;;;;;;;3.00;99.90;;;;;;4954399;29;19922;-81
2022/12/11 06:20:41;;;;;;;;;;;1.40;99.90;;;;;;4953083;29;19929;-80
2022/12/11 06:23:07;;;;;;;;;;;2.80;99.90;;;;;;4954441;29;20300;-81
2022/12/11 06:25:32;;;;;;;;;;;1.40;99.90;;;;;;4955565;29;20289;-81
2022/12/11 06:27:58;;;;;;;;;;;2.40;99.90;;;;;;4954822;28;19926;-81
2022/12/11 06:30:23;;;;;;;;;;;3.00;99.90;;;;;;4954565;29;19929;-80
2022/12/11 06:32:49;;;;;;;;;;;1.30;99.90;;;;;;4953529;29;20419;-81
2022/12/11 06:35:14;;;;;;;;;;;1.40;99.90;;;;;;4953292;29;19929;-80
2022/12/11 06:37:40;;;;;;;;;;;1.40;99.90;;;;;;4954352;29;19926;-81
2022/12/11 06:40:06;;;;;;;;;;;1.40;99.90;;;;;;4955015;29;19945;-80
2022/12/11 06:42:32;;;;;;;;;;;1.50;99.90;;;;;;4953711;28;20009;-80
2022/12/11 06:44:58;;;;;;;;;;;2.10;99.90;;;;;;4955450;29;20005;-80
2022/12/11 06:47:27;;;;;;;;;;;2.40;99.90;;;;;;4953604;29;19977;-81
2022/12/11 06:49:53;;;;;;;;;;;1.50;99.90;;;;;;4953879;28;19923;-81
2022/12/11 06:52:19;;;;;;;;;;;2.60;99.90;;;;;;4953634;29;20013;-79
2022/12/11 06:54:45;;;;;;;;;;;1.50;99.90;;;;;;4955376;28;20012;-80
2022/12/11 06:57:10;;;;;;;;;;;1.50;99.90;;;;;;4953373;29;20017;-80
2022/12/11 06:59:36;;;;;;;;;;;1.50;99.90;;;;;;4953540;29;20053;-80
2022/12/11 07:02:01;;;;;;;;;;;1.40;99.90;;;;;;4953624;29;20339;-81
2022/12/11 07:04:29;;;;;;;;;;;1.30;99.90;;;;;;4953818;29;19969;-81
2022/12/11 07:06:54;;;;;;;;;;;1.40;99.90;;;;;;4953680;29;20013;-81
2022/12/11 07:09:21;;;;;;;;;;;0.80;99.90;;;;;;4953473;29;20025;-81
2022/12/11 07:11:50;;;;;;;;;;;1.40;99.90;;;;;;4954180;28;20412;-81
2022/12/11 07:14:16;;;;;;;;;;;1.30;99.90;;;;;;4954716;29;19927;-81
2022/12/11 07:16:41;;;;;;;;;;;1.40;99.90;;;;;;4952608;29;19989;-81
2022/12/11 07:19:07;;;;;;;;;;;1.50;99.90;;;;;;4952886;29;19981;-81
2022/12/11 07:21:32;;;;;;;;;;;1.40;99.90;;;;;;4954386;29;20338;-82
2022/12/11 07:23:58;;;;;;;;;;;2.60;99.90;;;;;;4952929;28;20696;-81
2022/12/11 07:26:23;;;;;;;;;;;1.40;99.90;;;;;;4954175;29;19922;-81
2022/12/11 07:28:49;;;;;;;;;;;1.40;99.90;;;;;;4955102;29;20275;-81
2022/12/11 07:31:19;;;;;;;;;;;1.50;99.90;;;;;;4953563;29;19922;-80
2022/12/11 07:33:45;;;;;;;;;;;1.50;99.90;;;;;;4953311;29;19929;-81
2022/12/11 07:36:11;;;;;;;;;;;1.50;99.90;;;;;;4953330;29;19922;-81
2022/12/11 07:38:36;;;;;;;;;;;1.60;99.90;;;;;;4953804;28;19924;-82
2022/12/11 07:41:04;;;;;;;;;;;2.40;99.90;;;;;;4957285;29;19933;-81
2022/12/11 07:43:29;;;;;;;;;;;1.50;99.90;;;;;;4956769;28;19923;-82
2022/12/11 07:45:59;;;;;;;;;;;1.60;99.90;;;;;;4956609;29;19969;-81
2022/12/11 07:48:24;;;;;;;;;;;3.40;99.90;;;;;;4958409;29;19918;-82
2022/12/11 07:50:50;;;;;;;;;;;1.80;99.90;;;;;;4958234;29;19923;-83
2022/12/11 07:53:18;;;;;;;;;;;2.50;99.90;;;;;;4957116;28;19929;-81
2022/12/11 07:55:44;;;;;;;;;;;1.60;99.90;;;;;;4958720;29;19969;-82
2022/12/11 07:58:09;;;;;;;;;;;1.50;99.90;;;;;;4958527;29;19966;-82
2022/12/11 08:00:35;;;;;;;;;;;1.50;99.90;;;;;;4956366;28;19923;-82
2022/12/11 08:03:00;;;;;;;;;;;1.60;99.90;;;;;;4956767;29;19922;-82
2022/12/11 08:05:26;;;;;;;;;;;1.70;99.90;;;;;;4958060;29;20405;-82
2022/12/11 08:07:52;;;;;;;;;;;3.30;99.90;;;;;;4956497;29;20013;-83
2022/12/11 08:10:17;;;;;;;;;;;2.20;99.90;;;;;;4956452;29;19930;-82
2022/12/11 08:12:43;;;;;;;;;;;1.50;99.90;;;;;;4958203;28;20281;-83
2022/12/11 08:15:09;;;;;;;;;;;2.40;99.90;;;;;;4956052;29;20384;-83
2022/12/11 08:17:34;;;;;;;;;;;1.50;99.90;;;;;;4956512;28;19929;-82
2022/12/11 08:20:00;;;;;;;;;;;1.60;99.90;;;;;;4955852;29;20324;-82
2022/12/11 08:22:25;;;;;;;;;;;1.60;99.90;;;;;;4956691;29;19949;-85
2022/12/11 08:24:51;;;;;;;;;;;2.30;99.90;;;;;;4957821;29;19923;-85
2022/12/11 08:27:16;;;;;;;;;;;1.60;99.90;;;;;;4957018;29;20040;-84
2022/12/11 08:29:42;;;;;;;;;;;1.60;99.90;;;;;;4958066;28;20009;-80
2022/12/11 08:32:08;;;;;;;;;;;2.30;99.90;;;;;;4957259;28;20006;-85
2022/12/11 08:34:33;;;;;;;;;;;2.30;99.90;;;;;;4956639;29;19934;-77
2022/12/11 08:36:59;;;;;;;;;;;1.60;99.90;;;;;;4957916;28;19926;-77
2022/12/11 08:39:25;;;;;;;;;;;2.70;99.90;;;;;;4956518;29;19957;-78
2022/12/11 08:41:51;;;;;;;;;;;1.60;99.90;;;;;;4954452;28;20001;-77
2022/12/11 08:44:16;;;;;;;;;;;2.00;99.90;;;;;;4957406;29;20017;-79
2022/12/11 08:46:42;;;;;;;;;;;1.60;99.90;;;;;;4957286;29;20013;-79
2022/12/11 08:49:08;;;;;;;;;;;1.70;99.90;;;;;;4954866;28;20301;-75
2022/12/11 08:51:34;;;;;;;;;;;1.70;99.90;;;;;;4955665;28;19926;-75
2022/12/11 08:54:00;;;;;;;;;;;1.80;99.90;;;;;;4957627;29;19941;-78
2022/12/11 08:56:26;;;;;;;;;;;1.80;99.90;;;;;;4956445;28;19982;-73
2022/12/11 08:58:52;;;;;;;;;;;1.80;99.90;;;;;;4955999;29;20016;-76
2022/12/11 09:01:21;;;;;;;;;;;2.60;99.90;;;;;;4955833;29;19922;-75
2022/12/11 09:03:48;;;;;;;;;;;1.80;99.90;;;;;;4956663;29;19933;-76
2022/12/11 09:06:15;;;;;;;;;;;3.70;99.90;;;;;;4956984;29;20374;-74
2022/12/11 09:08:41;;;;;;;;;;;1.80;99.90;;;;;;4956811;29;19923;-75
2022/12/11 09:11:09;;;;;;;;;;;1.90;99.90;;;;;;4955803;28;20303;-74
2022/12/11 09:13:34;;;;;;;;;;;1.80;99.90;;;;;;4955557;29;19922;-75
2022/12/11 09:16:08;;;;;;;;;;;3.30;99.90;;;;;;4955701;29;19977;-74
2022/12/11 09:18:35;;;;;;;;;;;1.80;99.90;;;;;;4956077;28;19990;-75
2022/12/11 09:21:01;;;;;;;;;;;3.50;99.90;;;;;;4954975;29;19926;-74
2022/12/11 09:23:27;;;;;;;;;;;2.00;99.90;;;;;;4955148;29;19933;-73
2022/12/11 09:25:52;;;;;;;;;;;2.00;99.90;;;;;;4956959;29;19922;-75
2022/12/11 09:28:18;;;;;;;;;;;2.10;99.90;;;;;;4954066;29;20327;-74
2022/12/11 09:30:45;;;;;;;;;;;2.20;99.90;;;;;;4954749;29;19929;-79
2022/12/11 09:33:10;;;;;;;;;;;2.90;99.90;;;;;;4955615;29;19922;-82
2022/12/11 09:35:36;;;;;;;;;;;3.30;99.90;;;;;;4956510;29;20037;-79
2022/12/11 09:38:01;;;;;;;;;;;2.20;99.90;;;;;;4954816;29;20024;-77
2022/12/11 09:40:27;;;;;;;;;;;2.90;99.90;;;;;;4956531;28;19926;-81
2022/12/11 09:42:59;;;;;;;;;;;2.20;99.90;;;;;;4956093;28;19926;-76
2022/12/11 09:45:24;;;;;;;;;;;2.30;99.90;;;;;;4955436;28;20272;-76
2022/12/11 09:47:53;;;;;;;;;;;2.30;99.90;;;;;;4956143;28;19977;-76
2022/12/11 09:50:24;;;;;;;;;;;2.30;99.90;;;;;;4954470;29;19923;-79
2022/12/11 09:53:03;;;;;;;;;;;2.40;99.90;;;;;;4955017;29;20013;-82
2022/12/11 09:55:31;;;;;;;;;;;2.40;99.90;;;;;;4955154;29;20271;-80
2022/12/11 09:57:59;;;;;;;;;;;3.30;99.90;;;;;;4955201;28;20259;-77
2022/12/11 10:00:29;;;;;;;;;;;2.40;99.90;;;;;;4954425;29;19945;-81
2022/12/11 10:03:07;;;;;;;;;;;3.10;99.90;;;;;;4954292;28;20362;-81
2022/12/11 10:05:36;;;;;;;;;;;2.30;99.90;;;;;;4954260;29;19977;-83
2022/12/11 10:08:17;;;;;;;;;;;3.90;99.90;;;;;;4956059;28;20025;-80
2022/12/11 10:10:43;;;;;;;;;;;2.70;99.90;;;;;;4956036;28;20039;-85
2022/12/11 10:13:23;;;;;;;;;;;2.90;99.90;;;;;;4954922;28;20391;-86
2022/12/11 10:16:12;;;;;;;;;;;2.60;99.90;;;;;;4953289;29;19958;-77
2022/12/11 10:18:38;;;;;;;;;;;2.60;99.90;;;;;;4951464;29;19922;-80
2022/12/11 10:21:04;;;;;;;;;;;2.50;99.90;;;;;;4954277;28;20277;-78
2022/12/11 10:23:35;;;;;;;;;;;2.60;99.90;;;;;;4952588;29;19922;-77
2022/12/11 10:26:12;;;;;;;;;;;2.60;99.90;;;;;;4954322;29;19922;-77
2022/12/11 10:28:38;;;;;;;;;;;2.60;99.90;;;;;;4953395;29;19986;-83
2022/12/11 10:31:23;;;;;;;;;;;2.50;99.90;;;;;;4953298;29;19933;-83
2022/12/11 10:34:01;;;;;;;;;;;2.70;99.90;;;;;;4952341;29;19918;-76
2022/12/11 10:36:31;;;;;;;;;;;2.70;99.90;;;;;;4953098;29;20258;-77
2022/12/11 10:38:57;;;;;;;;;;;2.60;99.90;;;;;;4954129;29;19963;-82
2022/12/11 10:41:23;;;;;;;;;;;2.60;99.90;;;;;;4953224;29;20059;-83
2022/12/11 10:43:50;;;;;;;;;;;3.50;99.90;;;;;;4953235;29;20016;-77
2022/12/11 10:46:24;;;;;;;;;;;3.60;99.90;;;;;;4952851;29;19922;-78
2022/12/11 10:48:54;;;;;;;;;;;2.80;99.90;;;;;;4953619;29;19929;-73
2022/12/11 10:51:20;;;;;;;;;;;4.20;99.90;;;;;;4954091;28;19992;-75
2022/12/11 10:53:53;;;;;;;;;;;2.90;99.90;;;;;;4949436;28;19930;-74
2022/12/11 10:56:30;;;;;;;;;;;2.80;99.90;;;;;;4948267;29;19926;-78
2022/12/11 10:58:56;;;;;;;;;;;2.90;99.90;;;;;;4944936;29;19989;-79
2022/12/11 11:01:23;;;;;;;;;;;3.40;99.90;;;;;;4949084;29;19929;-78
2022/12/11 11:03:53;;;;;;;;;;;2.90;99.90;;;;;;4949898;28;20362;-77
2022/12/11 11:06:20;;;;;;;;;;;3.00;99.90;;;;;;4952711;29;19922;-77
2022/12/11 11:08:50;;;;;;;;;;;4.30;99.90;;;;;;4948125;29;20366;-76
2022/12/11 11:11:20;;;;;;;;;;;2.90;99.90;;;;;;4951253;28;19985;-75
2022/12/11 11:13:49;;;;;;;;;;;2.90;99.90;;;;;;4942815;28;19986;-77
2022/12/11 11:16:16;;;;;;;;;;;2.80;99.90;;;;;;4951390;29;20393;-76
2022/12/11 11:18:47;;;;;;;;;;;2.90;99.90;;;;;;4946466;29;19922;-76
2022/12/11 11:21:21;;;;;;;;;;;3.50;99.90;;;;;;4947941;28;19968;-77
2022/12/11 11:23:47;;;;;;;;;;;3.00;99.90;;;;;;4947414;28;19929;-76
2022/12/11 11:26:12;;;;;;;;;;;4.60;99.90;;;;;;4951949;29;20305;-74
2022/12/11 11:28:40;;;;;;;;;;;3.00;99.90;;;;;;4952352;29;19922;-74
2022/12/11 11:31:10;;;;;;;;;;;2.90;99.90;;;;;;4949523;29;19927;-75
2022/12/11 11:33:36;;;;;;;;;;;2.90;99.90;;;;;;4943628;28;19927;-74
2022/12/11 11:36:02;;;;;;;;;;;2.90;99.90;;;;;;4953284;28;19929;-79
2022/12/11 11:38:30;;;;;;;;;;;2.90;99.90;;;;;;4951519;29;19923;-79
2022/12/11 11:41:14;;;;;;;;;;;4.90;99.90;;;;;;4951245;28;20024;-78
2022/12/11 11:43:48;;;;;;;;;;;3.00;99.90;;;;;;4953476;28;19924;-78
2022/12/11 11:46:18;;;;;;;;;;;3.10;99.90;;;;;;4949975;28;19923;-76
2022/12/11 11:48:47;;;;;;;;;;;3.40;99.90;;;;;;4947032;29;19922;-73
2022/12/11 11:51:20;;;;;;;;;;;3.00;99.90;;;;;;4950385;28;19923;-73
2022/12/11 11:53:48;;;;;;;;;;;3.10;99.90;;;;;;4949941;28;19933;-76
2022/12/11 11:56:35;;;;;;;;;;;3.10;99.90;;;;;;4952275;28;20444;-78
2022/12/11 11:59:19;;;;;;;;;;;3.10;99.90;;;;;;4946381;29;20305;-76
2022/12/11 12:01:45;;;;;;;;;;;3.10;99.90;;;;;;4949440;29;19926;-79
2022/12/11 12:04:11;;;;;;;;;;;4.00;99.90;;;;;;4951386;28;19923;-77
2022/12/11 12:06:56;;;;;;;;;;;4.60;99.90;;;;;;4951037;29;19919;-76
2022/12/11 12:09:22;;;;;;;;;;;3.10;99.90;;;;;;4951693;28;19922;-74
2022/12/11 12:11:48;;;;;;;;;;;3.20;99.90;;;;;;4951373;29;19982;-74
2022/12/11 12:14:20;;;;;;;;;;;3.80;99.90;;;;;;4946981;29;20349;-71
2022/12/11 12:17:09;;;;;;;;;;;3.20;99.90;;;;;;4950955;29;20494;-75
2022/12/11 12:19:46;;;;;;;;;;;3.20;99.90;;;;;;4930454;28;19985;-76
2022/12/11 12:22:30;;;;;;;;;;;3.20;99.90;;;;;;4953141;29;19924;-75
2022/12/11 12:25:14;;;;;;;;;;;3.10;99.90;;;;;;4953493;28;19949;-73
2022/12/11 12:28:01;;;;;;;;;;;3.30;99.90;;;;;;4955351;29;19923;-72
2022/12/11 12:30:28;;;;;;;;;;;3.30;99.90;;;;;;4956653;28;19922;-74
2022/12/11 12:33:00;;;;;;;;;;;5.00;99.90;;;;;;4957217;28;19930;-74
2022/12/11 12:35:33;;;;;;;;;;;3.20;99.90;;;;;;4955909;29;19964;-75
2022/12/11 12:38:17;;;;;;;;;;;3.20;99.90;;;;;;4948604;29;20390;-76
2022/12/11 12:41:01;;;;;;;;;;;3.10;99.90;;;;;;4953256;28;19922;-76
2022/12/11 12:43:50;;;;;;;;;;;3.10;99.90;;;;;;4943692;29;19978;-75
2022/12/11 12:46:21;;;;;;;;;;;3.10;99.90;;;;;;4914986;29;20362;-77
2022/12/11 12:48:50;;;;;;;;;;;3.10;99.90;;;;;;4950716;29;19934;-76
2022/12/11 12:51:17;;;;;;;;;;;4.80;99.90;;;;;;4955176;28;19922;-75
2022/12/11 12:53:45;;;;;;;;;;;2.90;99.90;;;;;;4954622;29;19933;-74
2022/12/11 12:56:11;;;;;;;;;;;3.90;99.90;;;;;;4948063;28;19940;-75
2022/12/11 12:58:42;;;;;;;;;;;4.20;99.90;;;;;;4953633;28;19931;-72
2022/12/11 13:01:10;;;;;;;;;;;3.00;99.90;;;;;;4950819;29;19933;-74
2022/12/11 13:03:48;;;;;;;;;;;3.10;99.90;;;;;;4953785;28;19953;-73
2022/12/11 13:06:13;;;;;;;;;;;4.80;99.90;;;;;;4949648;29;19938;-75
2022/12/11 13:08:46;;;;;;;;;;;3.00;99.90;;;;;;4954792;29;19918;-73
2022/12/11 13:11:14;;;;;;;;;;;3.00;99.90;;;;;;4955525;28;19923;-73
2022/12/11 13:13:41;;;;;;;;;;;3.10;99.90;;;;;;4952327;29;19974;-75
2022/12/11 13:16:15;;;;;;;;;;;3.10;99.90;;;;;;4951469;29;19997;-73
2022/12/11 13:18:42;;;;;;;;;;;3.20;99.90;;;;;;4951494;29;19952;-73
2022/12/11 13:21:24;;;;;;;;;;;4.90;99.90;;;;;;4952421;29;19922;-74
2022/12/11 13:23:49;;;;;;;;;;;3.60;99.90;;;;;;4952861;29;19923;-73
2022/12/11 13:26:26;;;;;;;;;;;3.60;99.90;;;;;;4954717;28;19926;-76
2022/12/11 13:28:52;;;;;;;;;;;3.40;99.90;;;;;;4955820;28;19923;-78
2022/12/11 13:31:18;;;;;;;;;;;4.00;99.90;;;;;;4953252;29;20667;-76
2022/12/11 13:33:52;;;;;;;;;;;3.50;99.90;;;;;;4955251;28;20009;-75
2022/12/11 13:36:38;;;;;;;;;;;3.20;99.90;;;;;;4951244;28;20258;-74
2022/12/11 13:39:05;;;;;;;;;;;3.30;99.90;;;;;;4939417;29;19923;-78
2022/12/11 13:41:33;;;;;;;;;;;5.00;99.90;;;;;;4977405;28;19922;-74
2022/12/11 13:43:59;;;;;;;;;;;5.20;99.90;;;;;;4949067;29;19923;-74
2022/12/11 13:46:34;;;;;;;;;;;3.10;99.90;;;;;;4954943;28;19922;-75
2022/12/11 13:49:05;;;;;;;;;;;3.10;99.90;;;;;;4953002;29;19930;-74
2022/12/11 13:51:34;;;;;;;;;;;3.00;99.90;;;;;;4946098;29;19922;-77
2022/12/11 13:54:02;;;;;;;;;;;3.10;99.90;;;;;;4952221;28;20404;-76
2022/12/11 13:56:28;;;;;;;;;;;2.90;99.90;;;;;;4952495;29;20292;-76
2022/12/11 13:58:53;;;;;;;;;;;3.20;99.90;;;;;;4951328;29;19923;-75
2022/12/11 14:01:31;;;;;;;;;;;3.70;99.90;;;;;;4953293;29;19969;-74
2022/12/11 14:04:02;;;;;;;;;;;2.60;99.90;;;;;;4954224;29;19923;-75
2022/12/11 14:06:28;;;;;;;;;;;3.00;99.90;;;;;;4949013;29;19962;-74
2022/12/11 14:08:55;;;;;;;;;;;2.40;99.90;;;;;;4953370;29;20555;-74
2022/12/11 14:11:29;;;;;;;;;;;3.50;99.90;;;;;;4952802;29;19929;-74
2022/12/11 14:13:56;;;;;;;;;;;2.50;99.90;;;;;;4954549;28;19926;-74
2022/12/11 14:16:22;;;;;;;;;;;2.40;99.90;;;;;;4951570;28;19946;-74
2022/12/11 14:18:49;;;;;;;;;;;2.40;99.90;;;;;;4952985;28;19927;-74
2022/12/11 14:21:22;;;;;;;;;;;3.80;99.90;;;;;;4951087;28;20404;-73
2022/12/11 14:23:52;;;;;;;;;;;2.40;99.90;;;;;;4955443;28;19951;-73
2022/12/11 14:26:20;;;;;;;;;;;4.10;99.90;;;;;;4951593;28;20294;-74
2022/12/11 14:28:45;;;;;;;;;;;3.80;99.90;;;;;;4952722;28;19970;-71
2022/12/11 14:31:14;;;;;;;;;;;2.40;99.90;;;;;;4950281;29;19941;-71
2022/12/11 14:33:42;;;;;;;;;;;2.30;99.90;;;;;;4952831;28;20102;-72
2022/12/11 14:36:08;;;;;;;;;;;2.90;99.90;;;;;;4942686;29;19933;-71
2022/12/11 14:38:36;;;;;;;;;;;2.20;99.90;;;;;;4952793;29;19926;-71
2022/12/11 14:41:03;;;;;;;;;;;3.40;99.90;;;;;;4948128;28;20030;-73
2022/12/11 14:43:32;;;;;;;;;;;3.70;99.90;;;;;;4950549;29;19926;-73
2022/12/11 14:45:59;;;;;;;;;;;2.10;99.90;;;;;;4951865;29;20378;-73